Time;durP1;ratioP1;P1;durP2;ratioP2;P2;SDS_P1;SDS_P2;PMS_P1;PMS_P2;Temp;Humidity;BMP_temperature;BMP_pressure;BME280_temperature;BME280_humidity;BME280_pressure;Samples;Min_cycle;Max_cycle;Signal;HPM_P1;HPM_P2
2022/07/10 00:00:10;;;;;;;;;9.00;7.40;;;;;21.65;44.42;99386.56;5092497;28;8847;-72
2022/07/10 00:03:01;;;;;;;;;8.00;6.20;;;;;21.28;45.24;99383.81;5092889;28;8840;-73
2022/07/10 00:05:34;;;;;;;;;7.20;7.20;;;;;21.34;45.14;99380.91;5093238;28;8955;-70
2022/07/10 00:08:03;;;;;;;;;6.40;6.40;;;;;21.38;44.97;99373.66;5090258;28;8882;-72
2022/07/10 00:10:33;;;;;;;;;7.20;7.20;;;;;21.40;45.09;99372.63;5092501;28;8851;-73
2022/07/10 00:13:01;;;;;;;;;6.00;6.00;;;;;21.28;45.76;99377.66;5092111;28;8836;-71
2022/07/10 00:15:31;;;;;;;;;6.00;6.00;;;;;21.30;45.39;99373.16;5092144;28;8861;-75
2022/07/10 00:18:00;;;;;;;;;9.00;8.00;;;;;21.08;46.14;99368.88;5069065;28;8879;-73
2022/07/10 00:20:29;;;;;;;;;6.80;6.80;;;;;21.14;46.17;99368.56;5070481;28;8855;-72
2022/07/10 00:22:59;;;;;;;;;7.00;6.60;;;;;21.17;46.41;99364.91;5070155;28;8852;-73
2022/07/10 00:25:30;;;;;;;;;6.40;6.00;;;;;21.15;46.38;99367.66;5020545;28;8924;-72
2022/07/10 00:27:58;;;;;;;;;4.20;4.20;;;;;21.11;46.68;99363.41;5069224;28;8840;-73
2022/07/10 00:30:28;;;;;;;;;6.60;6.60;;;;;21.12;47.04;99359.81;5069092;28;9010;-71
2022/07/10 00:32:56;;;;;;;;;6.40;6.40;;;;;21.14;47.22;99362.41;5069088;28;8839;-72
2022/07/10 00:35:25;;;;;;;;;8.20;8.20;;;;;21.16;47.47;99357.91;5068891;28;8994;-71
2022/07/10 00:37:53;;;;;;;;;6.80;5.80;;;;;21.17;47.10;99356.94;5068839;28;8844;-72
2022/07/10 00:40:24;;;;;;;;;4.80;4.80;;;;;21.17;47.34;99363.13;5068896;28;8828;-70
2022/07/10 00:42:52;;;;;;;;;5.80;5.00;;;;;21.19;47.37;99371.88;5001350;28;8971;-71
2022/07/10 00:45:20;;;;;;;;;7.40;7.40;;;;;21.20;47.29;99359.47;5068697;28;8859;-69
2022/07/10 00:47:49;;;;;;;;;7.00;6.40;;;;;21.15;47.52;99370.31;5052227;28;8925;-74
2022/07/10 00:50:18;;;;;;;;;7.00;6.60;;;;;21.13;47.73;99364.19;5088067;28;8844;-71
2022/07/10 00:52:47;;;;;;;;;6.40;6.00;;;;;21.09;47.89;99362.59;5090042;28;8885;-72
2022/07/10 00:55:16;;;;;;;;;10.40;8.60;;;;;21.03;48.33;99360.25;5091095;28;8940;-72
2022/07/10 00:57:46;;;;;;;;;6.00;6.00;;;;;21.00;48.43;99352.44;5091385;28;8863;-71
2022/07/10 01:00:15;;;;;;;;;7.00;7.00;;;;;20.99;48.39;99353.38;5091109;28;8894;-71
2022/07/10 01:02:44;;;;;;;;;6.60;6.60;;;;;20.97;48.39;99347.28;5072696;28;8847;-73
2022/07/10 01:05:13;;;;;;;;;6.40;5.40;;;;;20.91;48.44;99352.88;5090998;28;8873;-75
2022/07/10 01:07:41;;;;;;;;;5.80;5.80;;;;;20.87;48.65;99348.63;5089431;28;8851;-74
2022/07/10 01:10:11;;;;;;;;;6.80;6.00;;;;;20.87;48.67;99353.94;5089830;28;8851;-70
2022/07/10 01:12:40;;;;;;;;;7.40;6.80;;;;;20.83;48.35;99342.59;5089731;28;8855;-72
2022/07/10 01:15:11;;;;;;;;;8.40;7.00;;;;;20.78;48.88;99341.97;5091183;28;8852;-71
2022/07/10 01:17:40;;;;;;;;;5.80;5.80;;;;;20.77;48.81;99341.09;5091475;28;8859;-72
2022/07/10 01:20:10;;;;;;;;;6.20;6.00;;;;;20.79;48.61;99354.28;5091326;28;8881;-72
2022/07/10 01:22:40;;;;;;;;;6.40;5.60;;;;;20.75;48.64;99350.91;5090058;28;8863;-73
2022/07/10 01:25:10;;;;;;;;;6.20;6.20;;;;;20.56;49.01;99342.91;5091267;28;8874;-72
2022/07/10 01:27:39;;;;;;;;;6.00;6.00;;;;;20.52;49.03;99343.97;5091457;28;8867;-74
2022/07/10 01:30:09;;;;;;;;;8.00;8.00;;;;;20.53;49.04;99342.19;5092517;28;8966;-72
2022/07/10 01:32:40;;;;;;;;;6.00;6.00;;;;;20.52;49.40;99346.63;5090375;28;8859;-72
2022/07/10 01:35:09;;;;;;;;;7.60;6.60;;;;;20.53;49.32;99336.88;5055026;28;9610;-71
2022/07/10 01:37:39;;;;;;;;;5.40;5.00;;;;;20.54;49.28;99341.25;5090296;28;8836;-71
2022/07/10 01:40:09;;;;;;;;;7.00;6.20;;;;;20.50;49.51;99337.03;5090658;28;9617;-71
2022/07/10 01:42:38;;;;;;;;;6.00;6.00;;;;;20.48;49.48;99334.44;5090324;28;8989;-71
2022/07/10 01:45:08;;;;;;;;;5.60;5.60;;;;;20.46;49.33;99338.97;5088943;28;8836;-69
2022/07/10 01:47:37;;;;;;;;;6.00;6.00;;;;;20.43;49.49;99336.44;5089942;28;8851;-70
2022/07/10 01:50:07;;;;;;;;;6.00;6.00;;;;;20.42;49.47;99324.13;5090108;28;8843;-71
2022/07/10 01:52:35;;;;;;;;;4.00;4.00;;;;;20.32;49.94;99326.34;5038276;28;8878;-74
2022/07/10 01:55:07;;;;;;;;;5.60;5.40;;;;;20.23;50.30;99324.94;5090550;28;8851;-73
2022/07/10 01:57:36;;;;;;;;;6.00;6.00;;;;;19.99;50.76;99329.50;5089929;28;8851;-72
2022/07/10 02:00:05;;;;;;;;;7.20;7.20;;;;;20.02;50.65;99321.44;5089218;28;8847;-72
2022/07/10 02:02:39;;;;;;;;;7.00;7.00;;;;;20.04;50.69;99324.03;5090164;28;8931;-73
2022/07/10 02:05:08;;;;;;;;;11.00;11.00;;;;;20.05;50.65;99312.50;5088752;28;8936;-73
2022/07/10 02:07:37;;;;;;;;;6.00;6.00;;;;;20.04;50.42;99319.59;5089692;28;8860;-72
2022/07/10 02:10:08;;;;;;;;;7.00;7.00;;;;;19.95;50.70;99321.78;5089865;28;8982;-70
2022/07/10 02:12:36;;;;;;;;;6.20;6.20;;;;;19.98;50.73;99322.50;5070961;28;8827;-72
2022/07/10 02:15:06;;;;;;;;;6.80;6.80;;;;;19.95;51.07;99319.97;5089816;28;8839;-71
2022/07/10 02:17:34;;;;;;;;;6.00;6.00;;;;;19.91;51.07;99321.03;5089877;28;8823;-72
2022/07/10 02:20:04;;;;;;;;;7.60;7.60;;;;;19.78;50.91;99310.09;5089678;28;8840;-73
2022/07/10 02:22:32;;;;;;;;;7.00;7.00;;;;;19.84;51.07;99306.34;5070850;28;8844;-71
2022/07/10 02:25:01;;;;;;;;;9.00;9.00;;;;;19.83;50.95;99310.78;5089651;28;8851;-72
2022/07/10 02:27:32;;;;;;;;;8.00;8.00;;;;;19.88;50.93;99299.97;5089824;28;8844;-72
2022/07/10 02:30:00;;;;;;;;;8.20;7.60;;;;;19.82;51.22;99306.41;5054101;28;8957;-71
2022/07/10 02:32:29;;;;;;;;;7.60;6.60;;;;;19.79;51.21;99306.53;5089556;28;8843;-72
2022/07/10 02:34:58;;;;;;;;;7.20;6.00;;;;;19.82;51.15;99308.19;5089433;28;8860;-73
2022/07/10 02:37:26;;;;;;;;;5.20;5.20;;;;;19.72;51.29;99302.44;5089320;28;8878;-72
2022/07/10 02:39:55;;;;;;;;;5.20;5.20;;;;;19.63;51.62;99297.50;5089261;28;8863;-72
2022/07/10 02:42:24;;;;;;;;;8.60;8.60;;;;;19.56;51.68;99298.66;5088558;28;8847;-71
2022/07/10 02:44:53;;;;;;;;;8.20;7.60;;;;;19.53;51.94;99293.50;5089536;28;8824;-72
2022/07/10 02:47:22;;;;;;;;;7.20;7.00;;;;;19.40;52.30;99293.16;5089352;28;8843;-73
2022/07/10 02:49:51;;;;;;;;;6.00;6.00;;;;;19.47;52.36;99300.78;5089232;28;8832;-72
2022/07/10 02:52:19;;;;;;;;;7.60;7.60;;;;;19.52;52.15;99292.63;5089719;28;8870;-71
2022/07/10 02:54:48;;;;;;;;;7.00;7.00;;;;;19.57;52.08;99295.97;5070468;28;8909;-70
2022/07/10 02:57:17;;;;;;;;;8.00;8.00;;;;;19.62;52.04;99304.56;5089213;28;8966;-72
2022/07/10 02:59:45;;;;;;;;;6.60;5.20;;;;;19.65;52.14;99301.78;5089071;28;8844;-71
2022/07/10 03:02:16;;;;;;;;;7.00;7.00;;;;;19.67;52.17;99293.78;5088846;28;8852;-72
2022/07/10 03:04:44;;;;;;;;;8.40;6.40;;;;;19.69;52.17;99289.28;5088351;28;8850;-71
2022/07/10 03:07:13;;;;;;;;;7.60;7.60;;;;;19.68;52.22;99283.16;5070337;28;8889;-70
2022/07/10 03:09:41;;;;;;;;;8.00;7.00;;;;;19.71;52.14;99276.84;5087757;28;8951;-73
2022/07/10 03:12:10;;;;;;;;;6.80;6.00;;;;;19.73;52.26;99280.31;5089086;28;8882;-72
2022/07/10 03:14:38;;;;;;;;;7.60;7.60;;;;;19.73;52.23;99287.41;5087565;28;8864;-71
2022/07/10 03:17:07;;;;;;;;;7.40;6.00;;;;;19.73;52.26;99284.75;5088729;28;9588;-72
2022/07/10 03:19:36;;;;;;;;;7.20;7.20;;;;;19.66;52.47;99285.00;5089215;28;8859;-72
2022/07/10 03:22:05;;;;;;;;;8.60;7.20;;;;;19.63;52.49;99279.81;5088878;28;8922;-70
2022/07/10 03:24:34;;;;;;;;;8.40;8.40;;;;;19.40;53.23;99288.72;5089090;28;8832;-71
2022/07/10 03:27:02;;;;;;;;;6.60;6.60;;;;;19.45;53.34;99280.59;5088667;28;9590;-72
2022/07/10 03:29:30;;;;;;;;;7.60;7.60;;;;;19.40;53.44;99287.88;5087455;28;8873;-71
2022/07/10 03:31:59;;;;;;;;;9.00;7.20;;;;;19.38;53.57;99287.94;5087861;28;9589;-73
2022/07/10 03:34:28;;;;;;;;;7.00;6.00;;;;;19.41;53.40;99290.47;5089164;28;8968;-71
2022/07/10 03:36:57;;;;;;;;;7.00;7.00;;;;;19.44;53.46;99292.09;5087853;28;8870;-72
2022/07/10 03:39:26;;;;;;;;;7.80;7.80;;;;;19.46;53.33;99293.75;5089993;28;8828;-70
2022/07/10 03:41:54;;;;;;;;;7.00;7.00;;;;;19.47;53.26;99294.63;5090059;28;9614;-71
2022/07/10 03:44:23;;;;;;;;;7.00;6.80;;;;;19.51;53.15;99295.34;5089755;28;8832;-72
2022/07/10 03:46:51;;;;;;;;;7.20;7.00;;;;;19.52;53.30;99294.44;5088829;28;8840;-72
2022/07/10 03:49:20;;;;;;;;;7.20;7.20;;;;;19.45;53.35;99296.44;5088912;28;8863;-71
2022/07/10 03:51:48;;;;;;;;;9.00;8.40;;;;;19.51;53.28;99300.63;5088671;28;8855;-74
2022/07/10 03:54:18;;;;;;;;;9.40;8.60;;;;;19.58;53.17;99291.53;5088384;28;8843;-71
2022/07/10 03:59:33;;;;;;;;;7.20;6.40;;;;;19.70;52.83;99304.25;5088725;28;8824;-72
2022/07/10 04:02:02;;;;;;;;;8.20;7.40;;;;;19.68;52.80;99296.38;5088359;28;8846;-73
2022/07/10 04:04:31;;;;;;;;;7.80;7.60;;;;;19.75;52.88;99293.50;5088470;28;8951;-72
2022/07/10 04:06:59;;;;;;;;;6.00;6.00;;;;;19.73;53.02;99296.19;5088208;28;8851;-71
2022/07/10 04:09:29;;;;;;;;;7.80;7.80;;;;;19.36;54.30;99308.28;5088494;28;8848;-71
2022/07/10 04:11:57;;;;;;;;;9.80;9.80;;;;;19.53;53.98;99294.38;5088619;28;8843;-71
2022/07/10 04:14:26;;;;;;;;;40.75;36.00;;;;;19.64;53.66;99292.13;5069715;28;8912;-73
2022/07/10 04:16:55;;;;;;;;;11.00;10.80;;;;;19.60;53.57;99290.56;5087538;28;9661;-71
2022/07/10 04:19:23;;;;;;;;;9.20;9.20;;;;;19.67;53.76;99289.34;5092002;28;8862;-72
2022/07/10 04:21:52;;;;;;;;;6.60;6.60;;;;;19.80;53.55;99302.09;5092195;28;8838;-73
2022/07/10 04:24:21;;;;;;;;;7.20;7.20;;;;;19.64;53.74;99307.13;5091851;28;8974;-72
2022/07/10 04:26:50;;;;;;;;;8.40;8.40;;;;;19.78;53.71;99293.38;5090691;28;8852;-72
2022/07/10 04:29:19;;;;;;;;;7.20;7.20;;;;;19.83;53.38;99294.91;5090293;28;8859;-75
2022/07/10 04:31:47;;;;;;;;;6.00;6.00;;;;;19.83;53.58;99296.69;5089236;28;8839;-71
2022/07/10 04:34:16;;;;;;;;;7.20;7.20;;;;;19.58;54.50;99296.81;5091747;28;8831;-71
2022/07/10 04:36:45;;;;;;;;;8.00;8.00;;;;;19.29;55.18;99302.38;5091438;28;8859;-72
2022/07/10 04:39:13;;;;;;;;;8.20;7.60;;;;;19.24;56.02;99303.47;5091512;28;9597;-72
2022/07/10 04:41:41;;;;;;;;;5.60;5.60;;;;;19.43;55.36;99308.88;5089218;28;8851;-71
2022/07/10 04:44:12;;;;;;;;;17.00;17.00;;;;;19.42;55.43;99310.66;5090070;28;8856;-71
2022/07/10 04:46:41;;;;;;;;;7.40;5.80;;;;;19.52;55.36;99308.50;5106170;28;8915;-71
2022/07/10 04:49:09;;;;;;;;;10.60;7.00;;;;;19.50;55.30;99320.94;5072575;28;8859;-73
2022/07/10 04:51:38;;;;;;;;;8.00;8.00;;;;;19.37;55.78;99319.72;5090103;28;8832;-72
2022/07/10 04:54:13;;;;;;;;;7.20;7.00;;;;;19.47;55.46;99329.00;5091394;28;8831;-73
2022/07/10 04:56:42;;;;;;;;;10.00;10.00;;;;;19.55;55.73;99318.13;5091277;28;8878;-72
2022/07/10 04:59:12;;;;;;;;;9.80;9.40;;;;;19.35;56.05;99317.13;5090925;28;8851;-70
2022/07/10 05:01:40;;;;;;;;;43.25;36.75;;;;;19.42;56.19;99325.69;5089862;28;8870;-73
2022/07/10 05:04:09;;;;;;;;;14.20;13.20;;;;;19.45;56.21;99329.06;5091617;28;8936;-75
2022/07/10 05:06:38;;;;;;;;;7.80;7.80;;;;;19.52;56.08;99327.03;5089053;28;8831;-73
2022/07/10 05:09:06;;;;;;;;;29.50;27.00;;;;;19.50;56.09;99338.59;5090871;28;9600;-73
2022/07/10 05:11:35;;;;;;;;;6.20;5.80;;;;;19.28;57.00;99329.75;5071833;28;8848;-72
2022/07/10 05:14:03;;;;;;;;;10.40;9.20;;;;;19.59;56.37;99317.91;5091015;28;8828;-72
2022/07/10 05:16:33;;;;;;;;;11.80;11.00;;;;;19.62;56.01;99319.56;5072528;28;8866;-72
2022/07/10 05:19:02;;;;;;;;;11.00;10.20;;;;;19.40;56.98;99324.88;5090755;28;8859;-72
2022/07/10 05:21:31;;;;;;;;;9.60;8.80;;;;;19.35;57.23;99319.78;5071671;28;8940;-72
2022/07/10 05:24:00;;;;;;;;;10.00;9.00;;;;;19.28;57.36;99313.88;5089147;28;9655;-72
2022/07/10 05:26:28;;;;;;;;;7.80;7.80;;;;;19.46;57.00;99309.63;5089220;28;8840;-74
2022/07/10 05:28:57;;;;;;;;;9.80;9.40;;;;;19.35;57.40;99317.13;5088753;28;8875;-74
2022/07/10 05:31:25;;;;;;;;;11.80;11.60;;;;;19.52;57.24;99315.59;5090629;28;8855;-74
2022/07/10 05:33:55;;;;;;;;;62.50;49.50;;;;;19.90;56.10;99298.13;5055856;28;8847;-74
2022/07/10 05:36:24;;;;;;;;;14.00;10.80;;;;;19.93;56.08;99299.81;5090467;28;8860;-74
2022/07/10 05:38:52;;;;;;;;;8.80;8.80;;;;;20.28;55.36;99300.03;5090770;28;9625;-73
2022/07/10 05:41:21;;;;;;;;;11.60;10.80;;;;;20.56;54.49;99286.41;5071503;28;8831;-73
2022/07/10 05:43:49;;;;;;;;;9.40;9.40;;;;;20.73;54.16;99289.16;5090353;28;8867;-73
2022/07/10 05:46:18;;;;;;;;;9.00;9.00;;;;;20.99;53.57;99293.25;5089330;28;8954;-75
2022/07/10 05:48:47;;;;;;;;;22.80;21.40;;;;;21.01;53.14;99288.72;5090019;28;8836;-75
2022/07/10 05:51:17;;;;;;;;;10.80;10.80;;;;;21.22;52.71;99297.44;5090147;28;8847;-74
2022/07/10 05:54:05;;;;;;;;;8.60;8.00;;;;;21.10;53.34;99302.50;5090041;28;8848;-73
2022/07/10 05:56:34;;;;;;;;;9.20;7.60;;;;;21.43;52.67;99292.88;5088905;28;8844;-73
2022/07/10 05:59:02;;;;;;;;;10.80;10.80;;;;;21.66;51.81;99293.56;5089874;28;8844;-73
2022/07/10 06:01:31;;;;;;;;;8.60;8.00;;;;;21.87;51.06;99291.66;5089863;28;8855;-74
2022/07/10 06:03:59;;;;;;;;;8.00;8.00;;;;;21.81;50.69;99289.28;5054193;28;8901;-74
2022/07/10 06:06:29;;;;;;;;;7.20;6.20;;;;;21.95;50.42;99299.22;5071095;28;8944;-74
2022/07/10 06:08:58;;;;;;;;;8.00;8.00;;;;;21.90;50.88;99285.31;5054319;28;8963;-73
2022/07/10 06:11:27;;;;;;;;;9.80;9.00;;;;;22.23;50.13;99285.38;5088503;28;8867;-74
2022/07/10 06:13:56;;;;;;;;;18.20;17.00;;;;;21.81;50.98;99294.59;5089417;28;8947;-72
2022/07/10 06:16:25;;;;;;;;;7.00;6.60;;;;;21.55;51.34;99285.28;5089893;28;8863;-72
2022/07/10 06:18:54;;;;;;;;;4.00;2.60;;;;;21.84;51.26;99281.19;5089401;28;8840;-72
2022/07/10 06:21:22;;;;;;;;;11.00;11.00;;;;;22.17;50.58;99275.91;5070767;28;8932;-75
2022/07/10 06:23:53;;;;;;;;;12.80;12.80;;;;;21.34;52.32;99280.09;5088064;28;8840;-74
2022/07/10 06:26:21;;;;;;;;;8.20;8.20;;;;;21.20;53.04;99277.25;5089196;28;8850;-74
2022/07/10 06:28:50;;;;;;;;;12.20;9.80;;;;;21.79;52.21;99278.75;5089492;28;8886;-75
2022/07/10 06:31:19;;;;;;;;;8.80;7.00;;;;;21.69;51.55;99271.34;5086944;28;8847;-73
2022/07/10 06:33:47;;;;;;;;;10.80;10.20;;;;;21.47;52.11;99279.50;5070365;28;8832;-75
2022/07/10 06:36:16;;;;;;;;;9.60;8.20;;;;;20.41;55.67;99280.03;5089272;28;8972;-71
2022/07/10 06:38:53;;;;;;;;;8.80;8.00;;;;;20.27;56.66;99277.16;5089142;28;8831;-73
2022/07/10 06:41:21;;;;;;;;;8.80;8.80;;;;;20.21;57.15;99276.50;5088534;28;8916;-71
2022/07/10 06:43:49;;;;;;;;;11.80;11.80;;;;;20.34;56.41;99274.16;5086731;28;8867;-75
2022/07/10 06:46:18;;;;;;;;;12.80;12.80;;;;;19.90;58.33;99276.97;5088077;28;8827;-76
2022/07/10 06:48:46;;;;;;;;;7.40;7.40;;;;;19.81;58.73;99280.00;5071012;28;8902;-74
2022/07/10 06:51:14;;;;;;;;;7.00;7.00;;;;;19.56;60.26;99285.44;5088791;28;8877;-73
2022/07/10 06:53:46;;;;;;;;;6.00;6.00;;;;;19.64;60.32;99281.56;5088568;28;8886;-72
2022/07/10 06:56:16;;;;;;;;;11.40;9.40;;;;;19.77;59.99;99267.81;5087661;28;8847;-75
2022/07/10 06:58:45;;;;;;;;;7.60;7.40;;;;;19.86;59.16;99265.63;5087590;28;8879;-72
2022/07/10 07:01:14;;;;;;;;;7.60;7.00;;;;;20.09;58.61;99269.06;5088926;28;8843;-73
2022/07/10 07:03:42;;;;;;;;;7.00;6.60;;;;;20.47;57.64;99263.84;5089007;28;8850;-72
2022/07/10 07:06:11;;;;;;;;;10.80;9.00;;;;;20.34;58.06;99273.28;5088756;28;8859;-74
2022/07/10 07:08:40;;;;;;;;;8.60;7.60;;;;;20.35;57.85;99262.63;5087584;28;8959;-71
2022/07/10 07:11:09;;;;;;;;;8.00;7.20;;;;;20.66;57.01;99250.63;5090438;28;8848;-74
2022/07/10 07:13:39;;;;;;;;;8.40;8.40;;;;;20.43;57.57;99249.03;5093576;28;8871;-75
2022/07/10 07:16:09;;;;;;;;;9.80;8.40;;;;;20.21;58.18;99260.59;5087793;28;8836;-74
2022/07/10 07:18:47;;;;;;;;;9.00;9.00;;;;;20.32;58.64;99251.31;5088592;28;8855;-71
2022/07/10 07:24:03;;;;;;;;;7.20;7.00;;;;;20.42;57.48;99249.97;5088753;28;8925;-73
2022/07/10 07:26:32;;;;;;;;;8.80;7.80;;;;;20.54;57.36;99253.84;5070528;28;8932;-75
2022/07/10 07:29:02;;;;;;;;;8.20;8.20;;;;;20.74;56.92;99250.31;5088808;28;8858;-74
2022/07/10 07:31:30;;;;;;;;;8.80;8.80;;;;;20.44;57.74;99256.06;5088203;28;8852;-72
2022/07/10 07:34:00;;;;;;;;;7.20;7.20;;;;;20.41;58.44;99257.03;5088199;28;8847;-73
2022/07/10 07:36:28;;;;;;;;;8.00;8.00;;;;;20.15;59.07;99255.59;5121593;28;8970;-76
2022/07/10 07:38:57;;;;;;;;;8.60;8.60;;;;;19.98;59.47;99253.69;5087413;28;8863;-73
2022/07/10 07:41:26;;;;;;;;;9.80;9.80;;;;;19.86;60.04;99247.13;5070096;28;8866;-73
2022/07/10 07:43:54;;;;;;;;;10.60;10.60;;;;;20.24;59.08;99251.66;5087716;28;8848;-73
2022/07/10 07:46:25;;;;;;;;;8.40;8.40;;;;;20.73;57.38;99256.53;5053062;28;8936;-74
2022/07/10 07:48:54;;;;;;;;;9.00;9.00;;;;;20.50;58.13;99254.91;5121286;27;8832;-73
2022/07/10 07:51:22;;;;;;;;;9.00;9.00;;;;;20.38;58.27;99253.69;5089661;28;8871;-77
2022/07/10 07:53:50;;;;;;;;;8.00;8.00;;;;;20.39;58.41;99250.94;5074018;28;8870;-73
2022/07/10 07:56:19;;;;;;;;;9.80;9.00;;;;;20.63;57.98;99254.28;5092541;28;8820;-73
2022/07/10 07:58:47;;;;;;;;;52.75;44.50;;;;;20.89;56.99;99259.28;5074152;28;8865;-72
2022/07/10 08:01:16;;;;;;;;;7.00;6.60;;;;;21.04;55.32;99261.25;5074114;28;8867;-73
2022/07/10 08:03:46;;;;;;;;;7.80;7.80;;;;;20.87;56.13;99256.75;5090702;28;8867;-70
2022/07/10 08:06:34;;;;;;;;;6.00;6.00;;;;;21.00;55.81;99259.63;5091833;28;8851;-70
2022/07/10 08:09:03;;;;;;;;;8.00;8.00;;;;;21.27;55.17;99262.75;5091825;28;8943;-71
2022/07/10 08:11:32;;;;;;;;;8.60;8.60;;;;;21.51;54.73;99254.53;5056215;28;8856;-75
2022/07/10 08:14:00;;;;;;;;;9.20;8.00;;;;;21.73;53.75;99247.22;5091478;28;8859;-73
2022/07/10 08:16:29;;;;;;;;;8.00;8.00;;;;;22.14;52.87;99257.47;5091483;28;8871;-75
2022/07/10 08:18:59;;;;;;;;;9.20;7.80;;;;;21.96;52.87;99245.16;5091392;28;8854;-74
2022/07/10 08:21:28;;;;;;;;;3.40;3.40;;;;;22.20;52.25;99254.50;5091536;28;9029;-74
2022/07/10 08:23:56;;;;;;;;;8.00;8.00;;;;;21.92;53.07;99259.53;5091913;28;8836;-72
2022/07/10 08:26:25;;;;;;;;;7.80;7.60;;;;;21.49;54.62;99259.91;5124377;27;8843;-75
2022/07/10 08:28:54;;;;;;;;;6.40;6.40;;;;;21.98;52.81;99260.09;5124206;27;8855;-72
2022/07/10 08:31:22;;;;;;;;;6.80;6.80;;;;;21.86;52.82;99262.53;5072360;28;8848;-75
2022/07/10 08:33:52;;;;;;;;;8.40;8.40;;;;;22.17;51.69;99256.44;5091646;28;8884;-74
2022/07/10 08:36:21;;;;;;;;;8.60;8.60;;;;;22.30;52.11;99259.34;5090210;28;8884;-74
2022/07/10 08:39:08;;;;;;;;;9.40;9.40;;;;;22.37;52.00;99263.41;5091211;28;8840;-75
2022/07/10 08:41:37;;;;;;;;;12.00;11.00;;;;;22.80;51.15;99257.53;5072183;28;9002;-74
2022/07/10 08:44:06;;;;;;;;;8.80;8.80;;;;;22.54;50.69;99254.50;5089870;28;9009;-75
2022/07/10 08:46:36;;;;;;;;;8.20;8.00;;;;;22.78;50.49;99244.34;5090888;28;8847;-74
2022/07/10 08:49:10;;;;;;;;;6.80;6.00;;;;;22.43;51.60;99249.78;5091375;28;8860;-73
2022/07/10 08:51:46;;;;;;;;;7.80;6.40;;;;;22.11;52.69;99244.34;5071975;28;8848;-72
2022/07/10 08:54:16;;;;;;;;;5.60;5.60;;;;;22.45;51.08;99242.56;5072508;28;8925;-75
2022/07/10 08:56:51;;;;;;;;;6.40;6.40;;;;;22.80;49.80;99249.53;5091221;28;8836;-75
2022/07/10 08:59:21;;;;;;;;;5.40;5.40;;;;;21.94;51.99;99250.53;5091220;28;8958;-73
2022/07/10 09:01:56;;;;;;;;;6.20;6.20;;;;;21.53;53.10;99250.91;5073575;28;8839;-75
2022/07/10 09:04:27;;;;;;;;;8.00;8.00;;;;;21.64;53.37;99254.78;5090279;28;8982;-71
2022/07/10 09:06:57;;;;;;;;;5.80;5.80;;;;;21.76;53.30;99244.41;5089480;28;8875;-74
2022/07/10 09:09:26;;;;;;;;;6.00;5.40;;;;;21.67;53.91;99252.00;5090798;28;8847;-71
2022/07/10 09:11:57;;;;;;;;;7.00;6.00;;;;;21.58;52.59;99261.25;5089245;28;8875;-73
2022/07/10 09:14:27;;;;;;;;;4.80;4.60;;;;;21.66;53.39;99251.09;5089427;28;8835;-72
2022/07/10 09:17:03;;;;;;;;;7.00;7.00;;;;;21.72;53.66;99252.59;5089199;28;8840;-74
2022/07/10 09:19:32;;;;;;;;;7.00;7.00;;;;;21.78;52.31;99245.19;5090295;28;8874;-78
2022/07/10 09:22:06;;;;;;;;;6.60;6.60;;;;;21.47;51.79;99253.84;5089147;28;9694;-72
2022/07/10 09:24:40;;;;;;;;;7.00;7.00;;;;;21.54;52.54;99249.94;5089745;28;8949;-71
2022/07/10 09:27:09;;;;;;;;;6.00;5.40;;;;;21.48;52.73;99244.09;5039325;28;8948;-75
2022/07/10 09:29:47;;;;;;;;;5.00;5.00;;;;;21.88;51.56;99240.25;5090932;28;8831;-73
2022/07/10 09:32:17;;;;;;;;;9.00;9.00;;;;;21.99;52.16;99245.88;5055479;28;9527;-74
2022/07/10 09:34:49;;;;;;;;;7.40;7.40;;;;;22.04;50.88;99237.66;5089479;28;8855;-73
2022/07/10 09:37:26;;;;;;;;;7.40;6.00;;;;;22.18;49.38;99240.44;5089275;28;8848;-75
2022/07/10 09:39:58;;;;;;;;;5.40;5.40;;;;;22.30;49.42;99228.31;5090964;28;8984;-70
2022/07/10 09:42:32;;;;;;;;;7.60;6.20;;;;;22.32;48.90;99236.22;5090298;28;8848;-76
2022/07/10 09:45:18;;;;;;;;;18.80;18.40;;;;;22.45;48.02;99223.97;5090016;28;8840;-74
2022/07/10 09:47:56;;;;;;;;;4.00;4.00;;;;;22.25;48.80;99229.47;5088382;28;8936;-74
2022/07/10 09:50:27;;;;;;;;;7.00;7.00;;;;;22.36;48.51;99232.44;5089470;28;8848;-73
2022/07/10 09:52:58;;;;;;;;;5.60;5.00;;;;;22.48;47.81;99230.94;5089506;28;9589;-76
2022/07/10 09:55:29;;;;;;;;;5.60;5.60;;;;;22.42;48.16;99236.56;5088537;28;8835;-74
2022/07/10 09:57:59;;;;;;;;;5.60;5.60;;;;;22.04;47.39;99224.41;5088606;28;8840;-75
2022/07/10 10:00:30;;;;;;;;;6.40;6.00;;;;;21.97;47.55;99239.78;5090011;28;8832;-75
2022/07/10 10:03:01;;;;;;;;;3.00;3.00;;;;;22.06;47.32;99233.13;5088049;28;8948;-75
2022/07/10 10:05:37;;;;;;;;;5.00;5.00;;;;;22.37;46.47;99237.69;5089835;28;8859;-75
2022/07/10 10:08:12;;;;;;;;;5.00;5.00;;;;;22.24;47.17;99251.69;5088424;28;8882;-77
2022/07/10 10:10:47;;;;;;;;;8.60;8.60;;;;;22.52;46.37;99243.13;5087220;28;8836;-76
2022/07/10 10:13:18;;;;;;;;;7.20;6.20;;;;;22.46;45.74;99236.34;5054587;28;8889;-74
2022/07/10 10:15:48;;;;;;;;;4.00;3.60;;;;;22.63;45.52;99234.53;5071091;28;9590;-74
2022/07/10 10:18:19;;;;;;;;;4.00;4.00;;;;;22.62;45.87;99231.03;5089379;28;8835;-73
2022/07/10 10:20:48;;;;;;;;;6.80;6.80;;;;;22.68;45.01;99233.34;5088201;28;8836;-73
2022/07/10 10:23:20;;;;;;;;;5.80;4.80;;;;;22.69;43.90;99228.91;5089330;28;8836;-73
2022/07/10 10:25:51;;;;;;;;;4.40;4.40;;;;;22.50;44.75;99237.88;5089347;28;8836;-73
2022/07/10 10:28:23;;;;;;;;;8.80;6.00;;;;;22.52;45.04;99235.16;5089620;28;8852;-74
2022/07/10 10:30:54;;;;;;;;;5.40;5.40;;;;;22.88;44.22;99229.56;5036737;28;8835;-76
2022/07/10 10:33:45;;;;;;;;;5.00;5.00;;;;;22.73;44.54;99225.13;5053803;28;8851;-75
2022/07/10 10:36:17;;;;;;;;;4.80;4.80;;;;;23.00;44.58;99225.34;5089132;28;8848;-77
2022/07/10 10:39:06;;;;;;;;;5.80;5.80;;;;;23.31;43.58;99226.31;5088813;28;9584;-77
2022/07/10 10:41:38;;;;;;;;;7.00;6.00;;;;;23.28;41.59;99224.66;5088157;28;8832;-70
2022/07/10 10:44:35;;;;;;;;;6.80;6.60;;;;;23.68;41.39;99214.31;5089658;28;8832;-75
2022/07/10 10:47:06;;;;;;;;;7.20;4.00;;;;;23.23;42.53;99218.75;5088498;28;8983;-74
2022/07/10 10:50:01;;;;;;;;;4.80;4.80;;;;;23.00;43.24;99229.81;5088996;28;8867;-72
2022/07/10 10:52:30;;;;;;;;;5.40;4.40;;;;;22.91;42.21;99218.78;5062889;28;9091;-75
2022/07/10 10:55:12;;;;;;;;;4.60;4.60;;;;;22.91;42.13;99216.13;5029405;28;8892;-75
2022/07/10 10:57:47;;;;;;;;;4.80;4.80;;;;;22.92;42.23;99204.50;5046272;28;8865;-72
2022/07/10 11:00:36;;;;;;;;;5.40;5.40;;;;;22.97;41.57;99207.78;5046131;28;9087;-74
2022/07/10 11:03:23;;;;;;;;;6.20;6.20;;;;;22.87;41.91;99219.00;5046256;28;8850;-76
2022/07/10 11:05:52;;;;;;;;;5.60;5.60;;;;;22.87;41.83;99219.00;5029514;28;8846;-75
2022/07/10 11:08:38;;;;;;;;;4.00;3.40;;;;;22.88;40.96;99218.94;5045923;28;8899;-75
2022/07/10 11:11:41;;;;;;;;;4.80;4.80;;;;;23.10;40.94;99201.78;5013175;28;8838;-76
2022/07/10 11:14:11;;;;;;;;;3.00;3.00;;;;;22.93;40.56;99200.03;5045839;28;9782;-75
2022/07/10 11:16:51;;;;;;;;;4.00;4.00;;;;;23.22;40.55;99194.91;5029226;28;8870;-72
2022/07/10 11:19:25;;;;;;;;;3.00;3.00;;;;;23.72;39.80;99188.34;5046237;28;9503;-72
2022/07/10 11:22:29;;;;;;;;;3.20;3.20;;;;;24.09;39.07;99181.66;4996834;28;8854;-75
2022/07/10 11:25:14;;;;;;;;;2.00;1.80;;;;;23.86;38.95;99198.22;5013286;28;8870;-73
2022/07/10 11:28:01;;;;;;;;;1.80;1.80;;;;;23.91;38.76;99181.03;5016858;28;8846;-74
2022/07/10 11:30:30;;;;;;;;;4.00;2.40;;;;;24.19;37.17;99181.94;5089880;28;8839;-73
2022/07/10 11:33:05;;;;;;;;;3.00;2.20;;;;;24.48;36.87;99181.91;5091543;28;8883;-73
2022/07/10 11:35:34;;;;;;;;;2.20;2.20;;;;;24.82;35.78;99177.97;5091820;28;8961;-72
2022/07/10 11:38:02;;;;;;;;;1.00;1.00;;;;;24.67;34.92;99174.50;5091404;28;8941;-74
2022/07/10 11:40:31;;;;;;;;;2.80;2.80;;;;;24.43;36.11;99176.88;5092990;28;8848;-76
2022/07/10 11:43:04;;;;;;;;;2.00;2.00;;;;;23.99;36.71;99172.56;5093110;28;8890;-74
2022/07/10 11:45:36;;;;;;;;;0.00;0.00;;;;;23.68;36.72;99184.19;5110581;28;8859;-76
2022/07/10 11:48:07;;;;;;;;;1.40;1.40;;;;;23.63;36.61;99175.59;5093172;28;8832;-74
2022/07/10 11:50:37;;;;;;;;;2.00;2.00;;;;;23.81;35.97;99155.88;5092773;28;8928;-72
2022/07/10 11:53:06;;;;;;;;;1.80;1.80;;;;;24.07;35.74;99161.41;5109855;28;8859;-72
2022/07/10 11:55:40;;;;;;;;;2.60;1.80;;;;;23.78;35.92;99171.16;5109619;28;8860;-75
2022/07/10 11:58:19;;;;;;;;;1.00;1.00;;;;;23.53;36.14;99168.19;5109932;28;8840;-76
2022/07/10 12:00:59;;;;;;;;;1.80;1.80;;;;;23.64;35.59;99169.34;5092940;28;8935;-72